Terminal Aerodrome Forecast
Issued by NWS St Louis, MO

Home | Current Version | Previous Version | Text Only | Print | Product List | Glossary On
Versions: 1 2 3 4 5 6 7 8 9 10 11 12 13 14 15 16 17 18 19 20 21 22 23 24 25
000
FTUS43 KLSX 180500
TAFSTL
TAF
KSTL 180520Z 1806/1912 10007KT P6SM SCT050 SCT250
     FM181600 14009KT P6SM BKN050
     FM190400 10008KT P6SM VCSH BKN050 OVC120
     FM190800 09008KT 6SM -SHRA OVC035=

USA.gov is the U.S. government's official web portal to all federal, state and local government web resources and services.